Stations météo

réclame
Mon MeteoGroup
Retie, Belgique (6464): Température de l'air & dewpoint: 20.05.2018 23:00:00 - 26.05.2018 23:00:00 (CEST)Retie, Belgique (6464): Vitesse du vent & gusts: 20.05.2018 23:00:00 - 26.05.2018 23:00:00 (CEST)Retie, Belgique (6464): Direction du vent: 20.05.2018 23:00:00 - 26.05.2018 23:00:00 (CEST)Retie, Belgique (6464): reduced air pressure: 20.05.2018 23:00:00 - 26.05.2018 23:00:00 (CEST)Retie, Belgique (6464): Ensoleillement: 20.05.2018 23:00:00 - 26.05.2018 23:00:00 (CEST)Retie, Belgique (6464): Quantités de précipitations: 20.05.2018 23:00:00 - 26.05.2018 23:00:00 (CEST)
Date & Time tt [°C] td [°C] ff [km/h] ff [knt] fx [km/h] fx [knt] dd ppp [hPa] sd [min] rr [mm]
26.05.2018 23:00:00 22,7 14,5 4 2 8 4 ENE 1018,8 0 0,0
26.05.2018 22:00:00 23,9 15,0 5 3 11 6 NE 1018,7 0 0,0
26.05.2018 21:00:00 26,6 14,5 8 4 16 8 E 1018,5 31 0,0
26.05.2018 20:00:00 27,7 14,1 11 6 21 11 E 1018,1 60 0,0
26.05.2018 19:00:00 28,6 14,0 10 5 19 11 E 1018,2 56 0,0
26.05.2018 18:00:00 28,7 13,5 12 6 24 13 ESE 1018,3 59 0,0
26.05.2018 17:00:00 28,7 13,7 13 7 23 12 E 1018,6 60 0,0
26.05.2018 16:00:00 28,5 13,3 13 7 22 12 ESE 1018,9 60 0,0
26.05.2018 15:00:00 28,2 14,0 14 7 28 15 E 1019,3 60 0,0
26.05.2018 14:00:00 27,1 14,9 14 7 23 12 E 1019,5 57 0,0
26.05.2018 13:00:00 26,5 14,9 14 8 23 12 E 1019,8 60 0,0
26.05.2018 12:00:00 25,1 16,1 11 6 20 11 E 1019,8 60 0,0
26.05.2018 11:00:00 24,3 16,6 9 5 16 9 E 1019,8 60 0,0
26.05.2018 10:00:00 23,0 16,3 9 5 13 7 E 1019,6 60 0,0
26.05.2018 09:00:00 21,9 17,2 4 2 8 4 ENE 1019,5 60 0,0
26.05.2018 08:00:00 19,1 16,5 4 2 8 5 ESE 1019,4 55 0,0
26.05.2018 07:00:00 16,8 15,7 4 2 6 3 E 1019,1 17 0,0
26.05.2018 06:00:00 15,2 14,5 4 2 7 4 NE 1018,7 0 0,0
26.05.2018 05:00:00 15,6 14,7 4 2 8 5 NE 1018,6 0 0,0
26.05.2018 04:00:00 16,5 15,2 5 3 9 5 NE 1018,6 0 0,0
26.05.2018 03:00:00 16,5 15,5 4 2 8 5 NE 1018,9 0 0,0
26.05.2018 02:00:00 16,2 15,2 4 2 5 3 N 1019,0 0 0,0
26.05.2018 01:00:00 18,0 16,1 4 2 7 4 N 1018,7 0 0,0
26.05.2018 00:00:00 18,8 17,0 4 2 6 4 NNW 1018,7 0 0,0
25.05.2018 23:00:00 19,5 17,0 4 2 8 4 N 1018,7 0 0,0
25.05.2018 22:00:00 21,5 16,9 5 3 20 11 NNW 1018,2 0 0,0
25.05.2018 21:00:00 23,3 16,2 5 3 11 6 NNW 1017,7 7 0,0
25.05.2018 20:00:00 24,1 15,1 0 0 6 4 N 1017,4 23 0,0
25.05.2018 19:00:00 25,5 13,3 0 0 7 4 N 1017,2 60 0,0
25.05.2018 18:00:00 25,8 13,8 0 0 6 3 N 1017,6 53 0,0
25.05.2018 17:00:00 24,6 12,9 4 2 10 5 SSW 1017,9 17 0,0
25.05.2018 16:00:00 24,9 14,1 7 4 15 8 S 1017,9 57 0,0
25.05.2018 15:00:00 24,9 13,3 7 4 24 13 E 1017,9 58 0,0
25.05.2018 14:00:00 23,9 14,1 4 2 9 5 N 1018,1 35 0,0
25.05.2018 13:00:00 23,2 16,1 4 2 13 7 WNW 1018,4 35 0,0
25.05.2018 12:00:00 22,2 16,7 5 3 12 7 E 1018,3 60 0,0
25.05.2018 11:00:00 21,0 16,6 6 3 9 5 E 1018,4 60 0,0
25.05.2018 10:00:00 19,6 16,2 4 2 6 3 SE 1018,4 60 0,0
25.05.2018 09:00:00 17,2 15,6 4 2 7 4 SW 1018,4 60 0,0
25.05.2018 08:00:00 15,0 14,4 4 2 5 3 SSE 1017,7 51 0,0
25.05.2018 07:00:00 13,4 13,0 0 0 6 4 N 1017,7 2 0,0
25.05.2018 06:00:00 13,0 12,8 0 0 6 3 N 1017,6 0 0,0
25.05.2018 05:00:00 13,5 13,2 0 0 5 3 N 1017,2 0 0,0
25.05.2018 04:00:00 14,2 13,7 4 2 5 3 E 1017,1 0 0,0
25.05.2018 03:00:00 14,3 13,8 4 2 8 4 E 1017,1 0 0,0
25.05.2018 02:00:00 14,6 14,1 4 2 6 4 NE 1017,5 0 0,0
25.05.2018 01:00:00 16,0 15,4 0 0 3 2 N 1017,5 0 0,0
25.05.2018 00:00:00 16,1 15,5 4 2 5 3 S 1017,6 0 0,0
24.05.2018 23:00:00 16,6 15,8 5 3 10 6 SSW 1017,6 0 0,6
24.05.2018 22:00:00 16,9 15,8 7 4 11 6 E 1016,8 0 2,3
24.05.2018 21:00:00 17,1 15,2 4 2 30 16 N 1016,8 0 2,5
24.05.2018 20:00:00 20,2 15,8 11 6 29 16 NE 1016,4 0 0,0
24.05.2018 19:00:00 22,2 15,4 6 3 14 8 ENE 1016,2 0 0,0
24.05.2018 18:00:00 22,0 15,5 4 2 21 11 ENE 1016,5 0 0,0
24.05.2018 17:00:00 21,6 14,6 12 7 27 15 ENE 1016,6 12 0,0
24.05.2018 16:00:00 22,7 14,9 14 8 30 16 ENE 1017,2 58 0,0
24.05.2018 15:00:00 22,7 14,8 12 7 26 14 ENE 1017,5 60 0,0
24.05.2018 14:00:00 21,7 14,5 11 6 23 13 ENE 1018,2 60 0,0
24.05.2018 13:00:00 21,0 14,5 10 5 27 14 NE 1018,7 60 0,0
24.05.2018 12:00:00 - - - - - - - - - -
24.05.2018 11:00:00 - - - - - - - - 10 -
24.05.2018 10:00:00 - - - - - - - - - -
24.05.2018 09:00:00 - - - - - - - - - -
24.05.2018 08:00:00 - - - - - - - - - -
24.05.2018 07:00:00 - - - - - - - - 0 -
24.05.2018 06:00:00 - - - - - - - - - -
24.05.2018 05:00:00 - - - - - - - - 0 -
24.05.2018 04:00:00 - - - - - - - - - -
24.05.2018 03:00:00 - - - - - - - - 0 -
24.05.2018 02:00:00 17,3 9,5 6 4 15 8 NE 1020,4 0 0,0
24.05.2018 01:00:00 - - - - - - - - - -
24.05.2018 00:00:00 - - - - - - - - - -
23.05.2018 23:00:00 - - - - - - - - 0 -
23.05.2018 22:00:00 - - - - - - - - - -
23.05.2018 21:00:00 - - - - - - - - - -
23.05.2018 20:00:00 - - - - - - - - - -
23.05.2018 19:00:00 - - - - - - - - 0 -
23.05.2018 18:00:00 - - - - - - - - - -
23.05.2018 17:00:00 - - - - - - - - - -
23.05.2018 16:00:00 - - - - - - - - - -
23.05.2018 15:00:00 - - - - - - - - 3 -
23.05.2018 14:00:00 20,7 15,4 10 5 19 10 ENE 1020,1 36 0,0
23.05.2018 13:00:00 - - - - - - - - - -
23.05.2018 12:00:00 - - - - - - - - - -
23.05.2018 11:00:00 - - - - - - - - 0 -
23.05.2018 10:00:00 16,3 14,4 4 2 16 9 NNE 1019,6 0 0,0
23.05.2018 09:00:00 - - - - - - - - - -
23.05.2018 08:00:00 - - - - - - - - - -
23.05.2018 07:00:00 - - - - - - - - 0 -
23.05.2018 06:00:00 - - - - - - - - - -
23.05.2018 05:00:00 - - - - - - - - 0 -
23.05.2018 04:00:00 - - - - - - - - - -
23.05.2018 03:00:00 - - - - - - - - 0 -
23.05.2018 02:00:00 - - - - - - - - - -
23.05.2018 01:00:00 - - - - - - - - - -
23.05.2018 00:00:00 - - - - - - - - - -
22.05.2018 23:00:00 - - - - - - - - 0 -
22.05.2018 22:00:00 - - - - - - - - - -
22.05.2018 21:00:00 - - - - - - - - - -
22.05.2018 20:00:00 - - - - - - - - - -
22.05.2018 19:00:00 - - - - - - - - 0 -
22.05.2018 18:00:00 15,5 14,0 5 3 19 10 WNW 1015,1 0 0,4
22.05.2018 17:00:00 - - - - - - - - 0 -
22.05.2018 16:00:00 19,9 12,1 18 10 29 15 ESE 1013,1 2 0,0
22.05.2018 15:00:00 24,2 13,3 4 2 11 6 N 1012,3 30 0,0
22.05.2018 14:00:00 23,5 12,4 4 2 13 7 ENE 1012,7 53 0,0
22.05.2018 13:00:00 23,2 13,7 5 3 16 8 NE 1012,7 60 0,0
22.05.2018 12:00:00 21,9 13,3 8 4 14 8 ENE 1012,9 60 0,0
22.05.2018 11:00:00 20,4 13,2 5 3 11 6 NE 1013,1 60 0,0
22.05.2018 10:00:00 18,7 13,4 5 3 12 7 NE 1013,0 60 0,0
22.05.2018 09:00:00 17,3 13,7 5 3 10 5 NNE 1013,0 58 0,0
22.05.2018 08:00:00 14,7 13,0 4 2 8 4 NNE 1012,6 60 0,0
22.05.2018 07:00:00 11,6 11,1 4 2 5 3 NE 1012,4 21 0,0
22.05.2018 06:00:00 10,0 9,7 0 0 3 1 N 1012,2 0 0,0
22.05.2018 05:00:00 10,2 9,8 0 0 4 2 N 1012,0 0 0,0
22.05.2018 04:00:00 10,9 10,5 0 0 5 3 N 1012,2 0 0,0
22.05.2018 03:00:00 11,7 11,2 4 2 5 3 NNW 1012,2 0 0,0
22.05.2018 02:00:00 12,4 11,8 0 0 3 2 N 1012,2 0 0,0
22.05.2018 01:00:00 13,1 12,4 4 2 5 3 NW 1012,1 0 0,0
22.05.2018 00:00:00 14,1 12,6 4 2 8 4 NE 1012,5 0 0,0
21.05.2018 23:00:00 14,4 13,7 4 2 5 3 ENE 1012,8 0 0,0
21.05.2018 22:00:00 15,5 14,2 4 2 8 5 N 1012,4 0 0,0
21.05.2018 21:00:00 16,7 15,3 4 2 6 3 E 1012,1 0 0,0
21.05.2018 20:00:00 17,5 14,6 4 2 35 19 N 1012,2 0 1,0
21.05.2018 19:00:00 23,6 9,3 9 5 27 15 E 1011,8 0 0,0
21.05.2018 18:00:00 24,5 8,6 13 7 29 16 E 1011,9 7 0,0
21.05.2018 17:00:00 25,3 8,8 16 8 31 17 E 1012,5 39 0,0
21.05.2018 16:00:00 25,5 8,9 14 8 33 18 E 1013,1 47 0,0
21.05.2018 15:00:00 24,5 8,6 19 10 34 18 E 1013,4 50 0,0
21.05.2018 14:00:00 24,2 8,7 18 10 40 22 ENE 1013,9 45 0,0
21.05.2018 13:00:00 22,8 9,2 16 9 30 16 ENE 1014,7 60 0,0
21.05.2018 12:00:00 20,9 9,2 11 6 22 12 ENE 1015,5 60 0,0
21.05.2018 11:00:00 19,5 9,7 13 7 27 15 ENE 1016,1 60 0,0
21.05.2018 10:00:00 17,7 9,5 10 5 18 10 ENE 1016,6 53 0,0
21.05.2018 09:00:00 14,2 9,9 7 4 11 6 ENE 1017,1 3 0,0
21.05.2018 08:00:00 13,4 10,5 4 2 12 7 NE 1017,4 0 0,0
21.05.2018 07:00:00 12,3 11,1 5 3 10 5 NE 1017,5 0 0,0
21.05.2018 06:00:00 11,4 11,1 0 0 4 2 N 1017,7 0 0,0
21.05.2018 05:00:00 10,4 10,0 0 0 - - N 1018,0 0 0,0
21.05.2018 04:00:00 10,7 10,2 0 0 3 2 N 1018,1 0 -
21.05.2018 03:00:00 11,4 10,9 0 0 3 2 N 1018,6 0 0,0
21.05.2018 02:00:00 11,8 11,1 0 0 9 5 N 1019,1 0 0,0
21.05.2018 01:00:00 12,2 11,1 0 0 5 3 N 1019,8 0 0,0
21.05.2018 00:00:00 12,9 11,6 4 2 6 3 N 1019,8 0 0,0
20.05.2018 23:00:00 14,3 12,0 0 0 9 5 N 1020,0 0 0,0

tt = Température de l'air
td = dewpoint
ff = Vitesse du vent
fx = gusts
dd = Direction du vent
ppp = reduced air pressure
sd = Ensoleillement
rr = Quantités de précipitations

stations d'obs. à proximité